Nearby METAR Reports

 

KMRB - Martinsburg, West Virginia, USA
Distance from station: NNW 9mi, 14km
Updated: 03/02/2021 1:53am
Few Clouds
Few Clouds
 Wind from NW
Wind: NW 17 mph , 28 km/h, Gust: 24 mph , 39 km/h
Temperature: 34°F , 1°C
Wind Chill: 23°F , -5°C
Dew Point: 12°F , -11°C
Humidity: 41%
Barometer: 30.14 inHg , 1020.7 hPa
Clouds: Few Clouds
Visibility: 10 miles , 16 km
Cloud details: Few Clouds 5000 ft
2021/03/02 06:53 KMRB 020653Z AUTO 32015G21KT 10SM FEW050 01/M11 A3014 RMK AO2 SLP211 T00061106
KOKV - Winchester Rgnl, Virginia, USA
Distance from station: SW 17mi, 28km
Updated: 03/02/2021 2:15am
Partly cloudy
Partly cloudy
 Wind from NW
Wind: NW 8 mph , 13 km/h
Temperature: 32°F , 0°C
Wind Chill: 25°F , -4°C
Dew Point: 19°F , -7°C
Humidity: 60%
Barometer: 30.14 inHg , 1020.7 hPa
Clouds: Partly cloudy
Visibility: 10 miles , 16 km
Cloud details: Partly cloudy 4800 ft
2021/03/02 07:15 KOKV 020715Z AUTO 31007KT 10SM SCT048 00/M07 A3014 RMK AO2
 
KJYO - Leesburg/Godfrey, Virginia, USA
Distance from station: SE 23mi, 38km
Updated: 03/02/2021 2:15am
Clear
Clear
 Wind from NNW
Wind: NNW 10 mph , 17 km/h
Temperature: 32°F , 0°C
Wind Chill: 24°F , -4°C
Dew Point: 23°F , -5°C
Humidity: 69%
Barometer: 30.16 inHg , 1021.3 hPa
Clouds: Clear
Visibility: 10 miles , 16 km
2021/03/02 07:15 KJYO 020715Z AUTO 33009KT 10SM CLR 00/M05 A3016 RMK AO2
KFDK - Frederick, Maryland, USA
Distance from station: ENE 30mi, 48km
Updated: 03/02/2021 2:15am
Clear
Clear
 Wind from NW
Wind: NW 13 mph , 20 km/h, Gust: 25 mph , 41 km/h
Temperature: 34°F , 1°C
Wind Chill: 25°F , -4°C
Dew Point: 14°F , -10°C
Humidity: 44%
Barometer: 30.16 inHg , 1021.3 hPa
Clouds: Clear
Visibility: 10 miles , 16 km
2021/03/02 07:15 KFDK 020715Z AUTO 32011G22KT 10SM CLR 01/M10 A3016 RMK AO2
 
KHGR - Hagerstown, Maryland, USA
Distance from station: NNE 30mi, 48km
Updated: 03/02/2021 1:53am
Clear
Clear
 Wind from NW
Wind: NW 16 mph , 26 km/h, Gust: 25 mph , 41 km/h
Temperature: 30°F , -1°C
Wind Chill: 19°F , -7°C
Dew Point: 10°F , -12°C
Humidity: 43%
Barometer: 30.14 inHg , 1020.7 hPa
Clouds: Clear
Visibility: 10 miles , 16 km
2021/03/02 06:53 KHGR 020653Z AUTO 32014G22KT 10SM CLR M01/M12 A3014 RMK AO2 SLP222 T10061117
KIAD - Wash Dc/Dulles, Virginia, USA
Distance from station: SE 34mi, 55km
Updated: 03/02/2021 1:52am
Clear
Clear
 Wind from NW
Wind: NW 20 mph , 31 km/h, Gust: 33 mph , 54 km/h
Temperature: 36°F , 2°C
Wind Chill: 25°F , -4°C
Dew Point: 19°F , -7°C
Humidity: 52%
Barometer: 30.13 inHg , 1020.3 hPa
Clouds: Clear
Visibility: 10 miles , 16 km
2021/03/02 06:52 KIAD 020652Z 31017G29KT 10SM CLR 02/M07 A3013 RMK AO2 PK WND 31031/0638 SLP204 T00171072
 
KRSP - Nsf Thurmont, Maryland, USA
Distance from station: NE 34mi, 55km
Updated: 03/02/2021 1:54am
Clear
Clear
 Wind from WNW
Wind: WNW 20 mph , 31 km/h, Gust: 37 mph , 59 km/h
Temperature: 25°F , -4°C
Wind Chill: 11°F , -12°C
Dew Point: 10°F , -12°C
Humidity: 54%
Barometer: 30.00 inHg , 1015.9 hPa
Clouds: Clear
Visibility: 10 miles , 16 km
2021/03/02 06:54 KRSP 020654Z AUTO 30017G32KT 10SM CLR M04/M12 A3000 RMK AO2 PK WND 29038/0639 SLP180 T10391117 TSNO PNO $
KGAI - Gaithersburg, Maryland, USA
Distance from station: E 40mi, 64km
Updated: 03/02/2021 1:56am
Clear
Clear
 Wind from NW
Wind: NW 15 mph , 24 km/h, Gust: 22 mph , 35 km/h
Temperature: 34°F , 1°C
Wind Chill: 24°F , -4°C
Dew Point: 16°F , -9°C
Humidity: 48%
Barometer: 30.13 inHg , 1020.3 hPa
Clouds: Clear
Visibility: 10 miles , 16 km
2021/03/02 06:56 KGAI 020656Z AUTO 31013G19KT 10SM CLR 01/M09 A3013 RMK AO2 PK WND 31027/0636 SLP220 T00061089 FZRANO
 
KRYT - Fountain Dale, Pennsylvania, USA
Distance from station: NE 40mi, 64km
Updated: 11/13/2017 7:53am
NOT Current
Mist, Overcast
Mist, Overcast
 Wind from calm
Wind: Calm
Temperature: 37°F , 3°C
Dew Point: 34°F , 1°C
Humidity: 87%
Barometer: 30.31 inHg , 1026.4 hPa
Summary: Mist
Clouds: Overcast
Visibility: 5 miles , 8 km
Cloud details: Overcast 700 ft
2017/11/13 12:53 KRYT 131253Z AUTO 00000KT 5SM BR OVC007 03/01 A3031 RMK AO2 SLP275 T00280011 TSNO $
KHEF - Manassas Muni, Virginia, USA
Distance from station: SSE 44mi, 72km
Updated: 03/02/2021 1:56am
Clear
Clear
 Wind from NW
Wind: NW 18 mph , 30 km/h, Gust: 25 mph , 41 km/h
Temperature: 36°F , 2°C
Wind Chill: 26°F , -3°C
Dew Point: 19°F , -7°C
Humidity: 52%
Barometer: 30.16 inHg , 1021.3 hPa
Clouds: Clear
Visibility: 10 miles , 16 km
2021/03/02 06:56 KHEF 020656Z AUTO 31016G22KT 10SM CLR 02/M07 A3016 RMK AO2 SLP219 T00221067 FZRANO
 
KHWY - Warrenton, Virginia, USA
Distance from station: SSE 50mi, 80km
Updated: 03/02/2021 2:15am
Clear
Clear
 Wind from NW
Wind: NW 9 mph , 15 km/h
Temperature: 36°F , 2°C
Wind Chill: 29°F , -2°C
Dew Point: 21°F , -6°C
Humidity: 56%
Barometer: 30.15 inHg , 1021 hPa
Clouds: Clear
Visibility: 10 miles , 16 km
2021/03/02 07:15 KHWY 020715Z AUTO 32008KT 10SM CLR 02/M06 A3015 RMK AO2 T00221063